Time;durP1;ratioP1;P1;durP2;ratioP2;P2;SDS_P1;SDS_P2;PMS_P1;PMS_P2;Temp;Humidity;BMP_temperature;BMP_pressure;BME280_temperature;BME280_humidity;BME280_pressure;Samples;Min_cycle;Max_cycle;Signal;HPM_P1;HPM_P2
2021/08/31 00:01:47;;;;;;;16.73;11.70;;;;;;;15.94;91.92;102251.00;5052367;28;20052;-55
2021/08/31 00:04:15;;;;;;;22.63;12.57;;;;;;;15.95;91.62;102247.19;5052261;28;20056;-55
2021/08/31 00:06:44;;;;;;;17.10;11.43;;;;;;;16.01;91.56;102261.75;5050605;28;20444;-55
2021/08/31 00:09:12;;;;;;;18.75;12.25;;;;;;;16.04;91.50;102256.53;5051679;28;20088;-54
2021/08/31 00:11:40;;;;;;;21.65;12.00;;;;;;;16.02;91.46;102258.75;5051807;28;20526;-52
2021/08/31 00:14:07;;;;;;;17.00;11.82;;;;;;;15.98;91.25;102261.19;5034532;28;20115;-54
2021/08/31 00:16:35;;;;;;;17.23;11.77;;;;;;;15.97;91.51;102261.50;5052217;28;20511;-53
2021/08/31 00:19:02;;;;;;;17.00;11.75;;;;;;;16.08;91.33;102262.34;5051654;28;20537;-54
2021/08/31 00:21:30;;;;;;;16.33;11.68;;;;;;;16.08;90.64;102268.66;5051881;28;20049;-55
2021/08/31 00:23:58;;;;;;;19.40;13.07;;;;;;;16.05;90.64;102263.72;5051571;28;20044;-55
2021/08/31 00:26:25;;;;;;;18.30;12.40;;;;;;;16.03;90.72;102268.66;5051649;28;20052;-53
2021/08/31 00:29:06;;;;;;;18.80;12.55;;;;;;;16.06;90.64;102265.34;5051747;28;20079;-53
2021/08/31 00:31:34;;;;;;;19.40;11.05;;;;;;;16.12;90.62;102264.28;5051705;28;20043;-54
2021/08/31 00:34:01;;;;;;;16.60;11.43;;;;;;;16.18;90.08;102263.19;5051996;28;20037;-54
2021/08/31 00:36:29;;;;;;;19.15;11.90;;;;;;;16.21;89.85;102269.25;5051679;28;20052;-54
2021/08/31 00:38:57;;;;;;;21.58;12.10;;;;;;;16.16;89.69;102268.16;5051479;28;20033;-53
2021/08/31 00:41:26;;;;;;;18.30;11.80;;;;;;;16.16;89.42;102270.91;5051381;28;20041;-55
2021/08/31 00:43:54;;;;;;;16.35;11.73;;;;;;;16.20;90.17;102273.94;5051582;28;20404;-52
2021/08/31 00:46:22;;;;;;;22.05;13.27;;;;;;;16.24;89.35;102274.22;5050286;28;20052;-52
2021/08/31 00:48:53;;;;;;;17.90;11.63;;;;;;;16.27;88.91;102276.44;5050094;28;20056;-51
2021/08/31 00:51:22;;;;;;;18.25;12.40;;;;;;;16.26;88.77;102264.59;5051537;28;20053;-51
2021/08/31 00:53:51;;;;;;;18.50;11.68;;;;;;;16.25;88.64;102276.69;5050223;28;20037;-53
2021/08/31 00:56:20;;;;;;;16.80;11.55;;;;;;;16.25;89.04;102267.63;5051478;28;20033;-52
2021/08/31 00:58:49;;;;;;;20.17;11.43;;;;;;;16.25;88.86;102279.44;5033770;28;20045;-53
2021/08/31 01:01:17;;;;;;;18.52;11.48;;;;;;;16.27;89.18;102271.75;5050505;28;20057;-53
2021/08/31 01:04:05;;;;;;;16.70;10.77;;;;;;;16.31;88.75;102277.53;5050835;28;20080;-53
2021/08/31 01:06:53;;;;;;;17.95;11.98;;;;;;;16.30;87.97;102278.63;5054441;28;20053;-51
2021/08/31 01:09:42;;;;;;;16.10;11.27;;;;;;;16.28;88.10;102278.06;5054714;28;20049;-51
2021/08/31 01:12:28;;;;;;;20.02;10.90;;;;;;;16.22;87.89;102274.47;5054006;28;20077;-52
2021/08/31 01:15:16;;;;;;;16.33;11.55;;;;;;;16.19;88.16;102286.84;5054776;28;20053;-54
2021/08/31 01:18:19;;;;;;;17.70;11.55;;;;;;;16.20;88.37;102279.41;5007807;28;20504;-53
2021/08/31 01:21:07;;;;;;;17.17;11.02;;;;;;;16.21;88.21;102289.34;5024531;28;20129;-55
2021/08/31 01:23:35;;;;;;;17.50;11.73;;;;;;;16.18;88.03;102289.88;5013647;28;20061;-55
2021/08/31 01:26:03;;;;;;;16.65;11.43;;;;;;;16.15;88.21;102291.22;5033344;28;20037;-55
2021/08/31 01:28:33;;;;;;;18.70;12.40;;;;;;;16.13;87.71;102289.84;5035179;28;20038;-52
2021/08/31 01:31:01;;;;;;;17.85;11.80;;;;;;;16.09;87.84;102292.31;5035333;28;20037;-52
2021/08/31 01:33:32;;;;;;;19.20;12.15;;;;;;;16.08;87.63;102290.66;5035027;28;20073;-51
2021/08/31 01:36:17;;;;;;;16.30;10.77;;;;;;;16.08;87.59;102296.16;5034782;28;20121;-53
2021/08/31 01:38:45;;;;;;;18.48;12.15;;;;;;;16.06;87.43;102300.28;5034477;28;20121;-51
2021/08/31 01:41:13;;;;;;;17.50;12.30;;;;;;;16.01;87.84;102300.25;5034986;28;20044;-49
2021/08/31 01:43:41;;;;;;;19.77;12.60;;;;;;;15.98;87.61;102296.13;5033352;28;20044;-54
2021/08/31 01:46:09;;;;;;;17.35;11.73;;;;;;;15.93;87.72;102304.34;5034789;28;20045;-55
2021/08/31 01:48:37;;;;;;;19.08;12.32;;;;;;;15.88;88.18;102294.16;5034578;28;20417;-55
2021/08/31 01:51:06;;;;;;;18.35;12.20;;;;;;;15.87;88.27;102297.16;5034583;28;20033;-52
2021/08/31 01:53:34;;;;;;;17.55;12.80;;;;;;;15.85;87.85;102297.44;5034264;28;20049;-53
2021/08/31 01:56:02;;;;;;;17.45;11.93;;;;;;;15.84;88.47;102305.94;5034339;28;20045;-54
2021/08/31 01:58:30;;;;;;;20.08;13.02;;;;;;;15.85;88.50;102304.84;5034922;28;20045;-55
2021/08/31 02:00:58;;;;;;;17.60;11.80;;;;;;;15.86;87.74;102312.81;5034582;28;20049;-55
2021/08/31 02:03:26;;;;;;;18.15;12.30;;;;;;;15.86;88.28;102309.25;5034701;28;20041;-55
2021/08/31 02:05:55;;;;;;;16.02;11.70;;;;;;;15.87;87.67;102316.41;5033953;28;20060;-55
2021/08/31 02:08:23;;;;;;;17.55;12.13;;;;;;;15.86;87.74;102314.75;5034461;28;20044;-56
2021/08/31 02:10:51;;;;;;;20.58;12.27;;;;;;;15.87;88.08;102321.91;5034101;28;20052;-56
2021/08/31 02:13:19;;;;;;;20.38;12.20;;;;;;;15.85;87.87;102321.34;5033011;28;20124;-53
2021/08/31 02:15:48;;;;;;;20.70;12.45;;;;;;;15.84;87.80;102327.94;5034476;28;20034;-55
2021/08/31 02:18:17;;;;;;;17.65;12.27;;;;;;;15.87;87.91;102321.91;5032510;28;20071;-51
2021/08/31 02:20:45;;;;;;;18.35;12.05;;;;;;;15.83;88.12;102315.31;5033058;28;20451;-55
2021/08/31 02:23:12;;;;;;;21.50;13.00;;;;;;;15.70;89.22;102320.16;5033774;28;20391;-55
2021/08/31 02:25:40;;;;;;;18.38;13.38;;;;;;;15.66;89.52;102319.03;5033774;28;20045;-54
2021/08/31 02:28:08;;;;;;;19.40;13.20;;;;;;;15.67;90.01;102311.59;5034093;28;20049;-56
2021/08/31 02:30:35;;;;;;;17.80;12.85;;;;;;;15.68;89.69;102322.34;5034112;28;20042;-55
2021/08/31 02:33:03;;;;;;;19.98;13.32;;;;;;;15.73;89.58;102311.41;5033992;28;20045;-52
2021/08/31 02:35:31;;;;;;;18.90;13.27;;;;;;;15.78;89.57;102318.84;5033353;28;20046;-52
2021/08/31 02:37:59;;;;;;;17.17;12.50;;;;;;;15.82;89.74;102319.13;5032569;28;20042;-52
2021/08/31 02:40:27;;;;;;;20.95;14.95;;;;;;;15.84;89.55;102316.94;5020042;28;20045;-55
2021/08/31 02:42:55;;;;;;;22.45;13.40;;;;;;;15.81;89.01;102309.25;5033871;28;20037;-52
2021/08/31 02:45:22;;;;;;;20.55;12.73;;;;;;;15.83;89.70;102309.81;5033618;28;20025;-50
2021/08/31 02:47:50;;;;;;;19.83;13.18;;;;;;;15.87;89.68;102310.91;5033871;28;20046;-52
2021/08/31 02:50:18;;;;;;;23.23;14.23;;;;;;;15.90;89.35;102326.88;5032926;28;20064;-49
2021/08/31 02:52:46;;;;;;;20.83;14.93;;;;;;;15.82;89.85;102324.63;5033370;28;20504;-51
2021/08/31 02:55:13;;;;;;;21.33;14.80;;;;;;;15.66;90.80;102327.25;5033601;28;20053;-51
2021/08/31 02:57:41;;;;;;;20.73;14.43;;;;;;;15.61;91.28;102324.50;5032129;28;20053;-50
2021/08/31 03:00:17;;;;;;;21.95;14.98;;;;;;;15.58;91.91;102325.00;5033342;28;20052;-49
2021/08/31 03:02:46;;;;;;;21.52;14.55;;;;;;;15.56;92.28;102324.44;5033556;28;20128;-51
2021/08/31 03:05:15;;;;;;;19.98;14.32;;;;;;;15.46;92.67;102322.44;5033035;28;20049;-49
2021/08/31 03:07:43;;;;;;;21.80;14.88;;;;;;;15.50;93.01;102320.81;5032963;28;20088;-50
2021/08/31 03:10:11;;;;;;;21.52;13.88;;;;;;;15.59;92.40;102314.84;5033597;28;20057;-54
2021/08/31 03:12:39;;;;;;;23.15;14.60;;;;;;;15.62;92.42;102317.88;5033117;28;20049;-51
2021/08/31 03:15:14;;;;;;;19.27;13.53;;;;;;;15.60;92.63;102317.31;5012295;28;20073;-53
2021/08/31 03:17:50;;;;;;;23.05;14.15;;;;;;;15.59;92.84;102318.41;5030868;28;20315;-56
2021/08/31 03:20:30;;;;;;;22.48;14.38;;;;;;;15.62;92.78;102328.06;5016392;28;20445;-54
2021/08/31 03:23:09;;;;;;;19.83;14.52;;;;;;;15.57;92.33;102320.59;5031569;28;20492;-54
2021/08/31 03:25:36;;;;;;;20.10;14.30;;;;;;;15.52;92.33;102321.41;5033136;28;20037;-54
2021/08/31 03:28:04;;;;;;;20.55;13.85;;;;;;;15.56;92.69;102318.94;5031818;28;20042;-50
2021/08/31 03:30:31;;;;;;;21.00;13.75;;;;;;;15.58;92.50;102311.25;5032698;28;20041;-53
2021/08/31 03:32:59;;;;;;;20.65;13.93;;;;;;;15.63;91.78;102322.28;5032185;28;20030;-52
2021/08/31 03:35:27;;;;;;;21.25;14.07;;;;;;;15.60;91.52;102311.81;5032599;28;20361;-54
2021/08/31 03:37:54;;;;;;;21.15;14.15;;;;;;;15.58;91.85;102322.25;5032380;28;20041;-54
2021/08/31 03:40:22;;;;;;;21.38;14.35;;;;;;;15.52;91.74;102320.56;5032434;28;20045;-51
2021/08/31 03:42:49;;;;;;;21.27;13.35;;;;;;;15.52;91.94;102320.56;5032637;28;20029;-54
2021/08/31 03:45:17;;;;;;;20.45;12.95;;;;;;;15.48;91.72;102320.25;5032436;28;20041;-53
2021/08/31 03:47:45;;;;;;;18.35;12.90;;;;;;;15.42;91.69;102320.50;5032223;28;20037;-51
2021/08/31 03:50:14;;;;;;;20.98;13.98;;;;;;;15.30;91.70;102318.78;5031801;28;20044;-52
2021/08/31 03:52:42;;;;;;;20.25;14.23;;;;;;;15.34;92.12;102327.28;5032345;28;20041;-50
2021/08/31 03:55:10;;;;;;;21.90;15.27;;;;;;;15.34;91.52;102325.41;5032199;28;20045;-54
2021/08/31 03:57:38;;;;;;;21.38;14.88;;;;;;;15.29;91.40;102319.84;5032576;28;20049;-52
2021/08/31 04:00:06;;;;;;;21.63;14.75;;;;;;;15.24;91.86;102319.00;5032249;28;20056;-55
2021/08/31 04:02:34;;;;;;;23.38;15.32;;;;;;;15.29;91.83;102319.84;5032032;28;20033;-54
2021/08/31 04:05:02;;;;;;;19.35;14.30;;;;;;;15.32;91.92;102321.25;5032286;28;20045;-54
2021/08/31 04:07:30;;;;;;;22.23;14.85;;;;;;;15.39;92.18;102329.25;5031850;28;20056;-55
2021/08/31 04:09:58;;;;;;;19.90;13.85;;;;;;;15.48;91.84;102327.69;5032552;28;20042;-57
2021/08/31 04:12:46;;;;;;;17.98;13.40;;;;;;;15.47;91.30;102331.53;5031716;28;20054;-56
2021/08/31 04:15:34;;;;;;;20.85;14.75;;;;;;;15.44;91.08;102340.28;5031308;28;20056;-57
2021/08/31 04:18:21;;;;;;;19.88;14.30;;;;;;;15.44;91.43;102341.13;5031713;28;20045;-58
2021/08/31 04:21:09;;;;;;;19.73;14.18;;;;;;;15.49;90.93;102343.91;5031423;28;20048;-56
2021/08/31 04:23:56;;;;;;;21.48;14.45;;;;;;;15.53;90.33;102356.00;5031853;28;20049;-56
2021/08/31 04:26:44;;;;;;;19.08;14.50;;;;;;;15.54;90.47;102351.38;5031939;28;20046;-56
2021/08/31 04:29:31;;;;;;;18.13;13.98;;;;;;;15.51;90.30;102358.22;5031608;28;20551;-54
2021/08/31 04:32:19;;;;;;;20.60;14.02;;;;;;;15.53;90.47;102361.50;5031469;28;20079;-56
2021/08/31 04:35:07;;;;;;;24.90;14.48;;;;;;;15.43;90.54;102357.88;5031664;28;20045;-57
2021/08/31 04:37:55;;;;;;;21.00;14.43;;;;;;;15.39;90.78;102365.78;5031359;28;20160;-51
2021/08/31 04:40:42;;;;;;;23.20;14.55;;;;;;;15.38;90.86;102363.31;5030941;28;20049;-56
2021/08/31 04:43:10;;;;;;;23.25;14.07;;;;;;;15.39;91.26;102364.97;5031628;28;20069;-56
2021/08/31 04:45:37;;;;;;;23.75;13.73;;;;;;;15.45;91.16;102369.41;5031954;28;20041;-54
2021/08/31 04:48:05;;;;;;;18.27;13.38;;;;;;;15.51;90.69;102373.84;5031529;28;20046;-57
2021/08/31 04:50:33;;;;;;;21.85;13.80;;;;;;;15.53;90.55;102377.16;5031262;28;20065;-53
2021/08/31 04:53:00;;;;;;;20.95;13.90;;;;;;;15.48;90.73;102374.38;5031922;28;20049;-56
2021/08/31 04:55:28;;;;;;;19.38;13.05;;;;;;;15.45;91.18;102380.41;5031436;28;20044;-56
2021/08/31 04:57:55;;;;;;;17.45;13.55;;;;;;;15.49;90.84;102378.78;5031512;28;20049;-57
2021/08/31 05:00:23;;;;;;;19.88;12.93;;;;;;;15.53;90.96;102379.91;5031218;28;20061;-52
2021/08/31 05:02:52;;;;;;;22.15;13.95;;;;;;;15.53;90.53;102379.91;5031715;28;20233;-57
2021/08/31 05:05:19;;;;;;;21.85;14.00;;;;;;;15.55;90.54;102385.97;5031327;28;20507;-51
2021/08/31 05:07:47;;;;;;;21.33;13.45;;;;;;;15.58;90.91;102379.94;5031161;28;20045;-56
2021/08/31 05:10:15;;;;;;;19.30;13.45;;;;;;;15.59;90.65;102387.13;5018464;28;20558;-57
2021/08/31 05:12:42;;;;;;;23.63;14.98;;;;;;;15.60;90.87;102388.75;5030743;28;20041;-58
2021/08/31 05:15:10;;;;;;;19.70;12.77;;;;;;;15.61;90.83;102390.44;5031683;28;20124;-59
2021/08/31 05:17:39;;;;;;;19.85;12.98;;;;;;;15.63;90.81;102393.72;5031959;28;20054;-58
2021/08/31 05:20:07;;;;;;;17.75;12.40;;;;;;;15.66;90.73;102398.72;5030949;28;20033;-60
2021/08/31 05:22:35;;;;;;;19.85;13.43;;;;;;;15.67;90.64;102402.28;5029844;28;20065;-59
2021/08/31 05:25:04;;;;;;;20.30;14.00;;;;;;;15.63;90.89;102393.72;5031130;28;20042;-59
2021/08/31 05:27:32;;;;;;;20.13;13.88;;;;;;;15.63;91.13;102393.72;5029943;28;20053;-58
2021/08/31 05:30:00;;;;;;;22.65;12.98;;;;;;;15.62;90.56;102396.75;5029400;28;20137;-58
2021/08/31 05:32:29;;;;;;;22.83;13.55;;;;;;;15.61;90.60;102398.66;5029968;28;20520;-58
2021/08/31 05:34:57;;;;;;;22.13;13.57;;;;;;;15.62;91.24;102400.31;5029888;28;20053;-54
2021/08/31 05:37:26;;;;;;;23.27;14.80;;;;;;;15.64;90.81;102405.56;5029678;28;20587;-58
2021/08/31 05:39:54;;;;;;;20.20;13.65;;;;;;;15.63;90.91;102410.19;5029836;28;20041;-58
2021/08/31 05:42:24;;;;;;;20.33;13.18;;;;;;;15.60;91.11;102404.41;5029745;28;20042;-59
2021/08/31 05:44:51;;;;;;;19.25;12.73;;;;;;;15.63;91.43;102414.88;5030542;28;20496;-58
2021/08/31 05:47:19;;;;;;;20.48;12.73;;;;;;;15.68;91.54;102418.50;5030925;28;20037;-59
2021/08/31 05:49:46;;;;;;;20.02;12.90;;;;;;;15.73;91.04;102417.75;5031226;28;20048;-58
2021/08/31 05:52:14;;;;;;;21.13;13.05;;;;;;;15.73;91.03;102420.50;5032429;28;20036;-55
2021/08/31 05:54:42;;;;;;;23.55;13.68;;;;;;;15.69;91.13;102411.91;5034765;28;20057;-59
2021/08/31 05:57:10;;;;;;;21.73;12.43;;;;;;;15.70;91.42;102412.75;5034517;28;20048;-57
2021/08/31 05:59:41;;;;;;;19.92;12.80;;;;;;;15.72;91.07;102414.16;5034651;28;20053;-57
2021/08/31 06:02:09;;;;;;;19.65;11.82;;;;;;;15.75;91.17;102419.13;5034449;28;20095;-57
2021/08/31 06:04:38;;;;;;;20.75;13.13;;;;;;;15.75;91.22;102424.63;5034715;28;20492;-59
2021/08/31 06:07:10;;;;;;;17.38;10.80;;;;;;;15.75;91.25;102424.63;5034133;28;20504;-57
2021/08/31 06:09:39;;;;;;;18.23;10.77;;;;;;;15.77;91.25;102419.69;5034748;28;20045;-58
2021/08/31 06:12:10;;;;;;;19.50;11.32;;;;;;;15.81;91.29;102428.25;5032935;28;20124;-57
2021/08/31 06:14:39;;;;;;;20.65;12.07;;;;;;;15.84;90.62;102424.13;5034269;28;20393;-59
2021/08/31 06:17:07;;;;;;;21.10;11.68;;;;;;;15.83;90.55;102423.31;5027274;28;20034;-57
2021/08/31 06:19:35;;;;;;;23.33;12.05;;;;;;;15.87;90.85;102420.84;5027655;28;20034;-57
2021/08/31 06:22:03;;;;;;;19.83;11.35;;;;;;;15.85;90.58;102425.78;5019219;28;20046;-57
2021/08/31 06:24:31;;;;;;;20.83;10.85;;;;;;;15.77;91.03;102422.44;5015112;28;20412;-59
2021/08/31 06:27:00;;;;;;;17.77;10.32;;;;;;;15.78;91.44;102428.78;5033956;28;20087;-57
2021/08/31 06:29:29;;;;;;;17.83;10.05;;;;;;;15.79;91.50;102429.59;5032591;28;20507;-60
2021/08/31 06:31:58;;;;;;;24.52;11.10;;;;;;;15.82;91.37;102429.06;5032891;28;20052;-56
2021/08/31 06:34:28;;;;;;;22.83;10.05;;;;;;;15.87;91.57;102432.66;5001048;28;20099;-57
2021/08/31 06:36:56;;;;;;;17.85;9.15;;;;;;;15.90;91.45;102439.59;5032598;28;20045;-57
2021/08/31 06:39:24;;;;;;;23.73;9.30;;;;;;;15.91;91.30;102433.81;5032808;28;20041;-56
2021/08/31 06:41:53;;;;;;;21.63;10.27;;;;;;;15.90;91.19;102432.16;5032402;28;20041;-55
2021/08/31 06:44:40;;;;;;;20.60;10.40;;;;;;;15.91;91.34;102432.97;5034189;28;20060;-57
2021/08/31 06:47:08;;;;;;;20.50;9.20;;;;;;;15.94;91.48;102435.19;5034035;28;20140;-57
2021/08/31 06:49:36;;;;;;;21.67;10.40;;;;;;;15.93;91.62;102434.38;5033878;28;20045;-57
2021/08/31 06:52:04;;;;;;;23.90;9.88;;;;;;;15.90;91.59;102436.84;5033548;28;20038;-61
2021/08/31 06:54:32;;;;;;;23.90;9.50;;;;;;;15.89;91.81;102432.41;5033954;28;20038;-56
2021/08/31 06:56:59;;;;;;;21.17;10.07;;;;;;;15.89;92.20;102435.16;5033008;28;20037;-57
2021/08/31 06:59:29;;;;;;;20.88;9.57;;;;;;;15.91;92.06;102433.81;5033489;28;20356;-58
2021/08/31 07:01:56;;;;;;;23.48;9.88;;;;;;;15.95;91.76;102434.94;5030708;28;20135;-58
2021/08/31 07:04:24;;;;;;;18.73;8.48;;;;;;;15.98;90.66;102439.06;5033410;28;20048;-53
2021/08/31 07:06:52;;;;;;;21.63;8.98;;;;;;;15.94;90.63;102440.69;5033597;28;20051;-58
2021/08/31 07:09:20;;;;;;;18.55;8.45;;;;;;;15.96;90.35;102450.31;5031837;28;20055;-55
2021/08/31 07:11:48;;;;;;;20.42;8.50;;;;;;;15.92;89.05;102442.88;5032076;28;20139;-54
2021/08/31 07:14:15;;;;;;;18.02;7.38;;;;;;;15.92;89.25;102445.63;5033339;28;20030;-57
2021/08/31 07:16:43;;;;;;;20.77;8.32;;;;;;;15.97;90.01;102456.69;5033428;28;20404;-52
2021/08/31 07:19:11;;;;;;;17.80;8.27;;;;;;;15.99;89.87;102454.47;5033028;28;21750;-55
2021/08/31 07:21:39;;;;;;;20.40;8.88;;;;;;;16.01;89.40;102463.28;5033389;28;20395;-58
2021/08/31 07:24:06;;;;;;;20.55;8.93;;;;;;;16.01;88.16;102457.78;5032752;28;20037;-58
2021/08/31 07:26:34;;;;;;;19.58;8.20;;;;;;;15.96;88.00;102464.06;5031742;28;20047;-61
2021/08/31 07:29:01;;;;;;;22.80;9.15;;;;;;;15.97;87.95;102468.50;5033089;28;20052;-57
2021/08/31 07:31:30;;;;;;;19.55;8.07;;;;;;;15.96;87.89;102466.00;5033008;28;20045;-58
2021/08/31 07:33:58;;;;;;;18.70;7.85;;;;;;;15.96;87.66;102466.81;5031895;28;20049;-57
2021/08/31 07:36:25;;;;;;;17.08;7.82;;;;;;;16.02;87.86;102464.97;5032507;28;20047;-51
2021/08/31 07:38:55;;;;;;;19.23;8.25;;;;;;;16.06;87.81;102468.81;5024294;28;20053;-54
2021/08/31 07:41:23;;;;;;;20.65;8.27;;;;;;;16.03;87.68;102474.03;5032538;28;20041;-55
2021/08/31 07:43:52;;;;;;;17.00;7.68;;;;;;;16.00;87.54;102475.38;5023637;28;20050;-57
2021/08/31 07:46:20;;;;;;;18.15;7.30;;;;;;;16.03;87.70;102474.84;5026764;28;20046;-55
2021/08/31 07:48:49;;;;;;;18.00;8.27;;;;;;;16.06;87.08;102479.81;5032049;28;20041;-57
2021/08/31 07:51:17;;;;;;;17.60;8.00;;;;;;;16.08;87.04;102474.06;5032610;28;20042;-58
2021/08/31 07:53:45;;;;;;;22.23;8.38;;;;;;;16.11;87.09;102479.84;5031835;28;20030;-57
2021/08/31 07:56:12;;;;;;;23.52;8.27;;;;;;;16.10;86.03;102478.19;5032144;28;20033;-56
2021/08/31 07:58:40;;;;;;;21.08;8.32;;;;;;;16.07;86.54;102478.75;5032256;28;20053;-56
2021/08/31 08:01:07;;;;;;;20.08;7.95;;;;;;;16.10;86.33;102488.38;5031957;28;20038;-55
2021/08/31 08:03:35;;;;;;;17.70;8.13;;;;;;;16.14;86.46;102481.25;5032277;28;20084;-57
2021/08/31 08:06:03;;;;;;;18.48;8.20;;;;;;;16.15;86.37;102480.16;5032213;28;20080;-52
2021/08/31 08:08:31;;;;;;;18.30;8.63;;;;;;;16.21;86.47;102487.38;5031975;28;20033;-58
2021/08/31 08:10:58;;;;;;;20.67;8.00;;;;;;;16.29;86.36;102486.03;5031723;28;20047;-59
2021/08/31 08:13:26;;;;;;;20.42;8.38;;;;;;;16.29;85.64;102489.59;5031602;28;20030;-58
2021/08/31 08:15:53;;;;;;;16.92;7.43;;;;;;;16.30;85.27;102479.41;5031417;28;20116;-57
2021/08/31 08:18:21;;;;;;;16.80;7.35;;;;;;;16.31;84.10;102487.41;5031668;28;20052;-57
2021/08/31 08:20:49;;;;;;;18.17;7.32;;;;;;;16.33;84.83;102489.88;5032077;28;20051;-58
2021/08/31 08:23:16;;;;;;;18.58;7.32;;;;;;;16.32;83.55;102497.31;5031700;28;20511;-57
2021/08/31 08:25:44;;;;;;;17.40;7.70;;;;;;;16.31;83.50;102498.41;5031634;28;20056;-57
2021/08/31 08:28:22;;;;;;;23.20;8.45;;;;;;;16.29;84.04;102497.03;5032029;28;20030;-54
2021/08/31 08:30:50;;;;;;;15.80;7.15;;;;;;;16.30;83.86;102499.50;5027477;28;20045;-54
2021/08/31 08:33:24;;;;;;;19.60;7.75;;;;;;;16.37;84.31;102491.00;5016570;28;20052;-56
2021/08/31 08:35:52;;;;;;;18.17;7.00;;;;;;;16.41;83.64;102497.66;5019295;28;20050;-56
2021/08/31 08:38:21;;;;;;;17.00;7.32;;;;;;;16.45;83.56;102503.44;5031017;28;20051;-54
2021/08/31 08:40:49;;;;;;;20.50;7.82;;;;;;;16.45;83.11;102497.94;5026241;28;20137;-56
2021/08/31 08:43:20;;;;;;;15.45;7.55;;;;;;;16.46;83.54;102497.69;5025974;28;20048;-55
2021/08/31 08:45:49;;;;;;;20.05;8.23;;;;;;;16.51;83.64;102497.69;5030105;28;20064;-54
2021/08/31 08:48:25;;;;;;;17.85;8.00;;;;;;;16.56;82.21;102505.97;5030061;28;20050;-57
2021/08/31 08:50:59;;;;;;;17.50;8.20;;;;;;;16.55;81.23;102504.34;5031501;28;20133;-58
2021/08/31 08:53:29;;;;;;;18.52;8.07;;;;;;;16.56;81.80;102503.22;5030224;28;20044;-58
2021/08/31 08:56:00;;;;;;;18.90;8.57;;;;;;;16.58;81.36;102509.28;5030027;28;20407;-58
2021/08/31 08:58:29;;;;;;;20.08;7.88;;;;;;;16.61;81.39;102508.75;5031751;28;20044;-58
2021/08/31 09:01:05;;;;;;;16.25;7.90;;;;;;;16.65;81.15;102513.75;5031900;28;20042;-58
2021/08/31 09:03:35;;;;;;;17.25;8.15;;;;;;;16.65;81.19;102516.50;5031691;28;20037;-57
2021/08/31 09:06:12;;;;;;;27.67;8.35;;;;;;;16.67;81.60;102508.78;5031397;28;20116;-56
2021/08/31 09:09:01;;;;;;;20.30;8.68;;;;;;;16.69;81.01;102514.84;5031013;28;20047;-51
2021/08/31 09:11:32;;;;;;;18.95;8.60;;;;;;;16.71;81.25;102523.66;5030347;28;20045;-55
2021/08/31 09:14:17;;;;;;;16.48;7.60;;;;;;;16.73;80.74;102522.31;5030862;28;20048;-59
2021/08/31 09:16:54;;;;;;;17.58;8.00;;;;;;;16.76;79.98;102526.44;5031633;28;20041;-58
2021/08/31 09:19:28;;;;;;;14.25;7.22;;;;;;;16.76;80.78;102520.94;5030003;28;20503;-59
2021/08/31 09:22:14;;;;;;;22.40;8.07;;;;;;;16.77;80.61;102520.69;5030777;28;20453;-57
2021/08/31 09:25:09;;;;;;;16.55;7.45;;;;;;;16.82;80.56;102522.66;5031113;28;20042;-58
2021/08/31 09:27:39;;;;;;;17.05;8.38;;;;;;;16.82;79.49;102525.41;5035048;28;20053;-58
2021/08/31 09:30:20;;;;;;;23.05;7.85;;;;;;;16.80;78.87;102517.41;5035124;28;20441;-59
2021/08/31 09:33:06;;;;;;;14.10;6.80;;;;;;;16.75;79.06;102511.03;5035625;28;20037;-59
2021/08/31 09:35:49;;;;;;;15.90;8.15;;;;;;;16.78;79.30;102519.59;5021905;28;20038;-56
2021/08/31 09:38:19;;;;;;;15.90;7.63;;;;;;;16.77;79.28;102522.59;5033425;28;20046;-58
2021/08/31 09:40:51;;;;;;;14.75;7.38;;;;;;;16.78;79.33;102519.59;5033985;28;20041;-58
2021/08/31 09:43:22;;;;;;;16.45;7.65;;;;;;;16.79;79.28;102529.53;5033352;28;20042;-56
2021/08/31 09:45:55;;;;;;;15.75;7.28;;;;;;;16.82;78.08;102522.66;5033933;28;20051;-58
2021/08/31 09:48:24;;;;;;;14.80;7.50;;;;;;;16.85;77.59;102524.88;5033687;28;20083;-59
2021/08/31 09:50:54;;;;;;;18.10;7.07;;;;;;;16.86;77.12;102532.03;5034707;28;20046;-57
2021/08/31 09:53:25;;;;;;;19.17;7.75;;;;;;;16.87;77.14;102525.44;5034820;28;20045;-59
2021/08/31 09:56:01;;;;;;;18.00;7.10;;;;;;;16.89;77.75;102531.50;5034835;28;20045;-59
2021/08/31 09:58:30;;;;;;;;;;;;;;;16.92;78.10;102530.94;5034992;28;20041;-58
2021/08/31 10:00:58;;;;;;;19.88;7.90;;;;;;;16.94;78.48;102533.44;5034996;28;19921;-58
2021/08/31 10:03:26;;;;;;;14.10;7.75;;;;;;;16.96;78.92;102537.59;5034552;28;20107;-54
2021/08/31 10:05:56;;;;;;;13.60;7.53;;;;;;;17.00;79.09;102519.44;5034159;28;20045;-58
2021/08/31 10:08:24;;;;;;;17.60;9.10;;;;;;;17.02;78.90;102538.44;5034627;28;20038;-54
2021/08/31 10:10:53;;;;;;;19.92;8.30;;;;;;;17.03;78.82;102542.84;5033580;28;20117;-55
2021/08/31 10:13:23;;;;;;;22.98;8.70;;;;;;;17.04;79.14;102530.72;5034390;28;20038;-54
2021/08/31 10:15:53;;;;;;;20.98;7.57;;;;;;;17.08;79.62;102536.50;5034099;28;20515;-56
2021/08/31 10:18:24;;;;;;;15.65;8.13;;;;;;;17.12;78.66;102532.13;5034269;28;20057;-56
2021/08/31 10:20:53;;;;;;;21.02;8.02;;;;;;;17.14;78.32;102529.94;5034129;28;20037;-56
2021/08/31 10:23:31;;;;;;;15.07;7.20;;;;;;;17.16;78.23;102519.47;5033035;28;20061;-57
2021/08/31 10:26:22;;;;;;;15.55;7.53;;;;;;;17.17;78.00;102521.97;5033999;28;20404;-56
2021/08/31 10:28:51;;;;;;;18.45;7.10;;;;;;;17.20;77.87;102524.19;5034340;28;20132;-59
2021/08/31 10:31:29;;;;;;;14.68;7.63;;;;;;;17.23;77.81;102518.13;5034068;28;20061;-58
2021/08/31 10:33:57;;;;;;;15.80;7.18;;;;;;;17.27;77.81;102515.66;5032711;28;20046;-57
2021/08/31 10:36:36;;;;;;;16.02;7.75;;;;;;;17.38;77.57;102524.75;5031963;28;20128;-58
2021/08/31 10:39:07;;;;;;;16.15;7.95;;;;;;;17.45;77.30;102523.38;5026805;28;20049;-62
2021/08/31 10:41:42;;;;;;;26.10;7.88;;;;;;;17.55;76.96;102521.75;5015723;28;20095;-56
2021/08/31 10:44:34;;;;;;;21.50;8.45;;;;;;;17.61;76.42;102515.16;5032329;28;20041;-58
2021/08/31 10:47:08;;;;;;;26.52;7.82;;;;;;;17.68;76.39;102518.47;5032211;28;20091;-58
2021/08/31 10:49:56;;;;;;;19.08;7.63;;;;;;;17.75;75.75;102510.75;5031629;28;20119;-59
2021/08/31 10:52:50;;;;;;;17.80;8.23;;;;;;;17.84;75.31;102514.63;5025450;28;20045;-59
2021/08/31 10:55:24;;;;;;;19.33;7.78;;;;;;;17.83;76.08;102504.72;5032803;28;20496;-58
2021/08/31 10:57:53;;;;;;;15.95;7.75;;;;;;;17.85;76.24;102512.72;5033551;28;20408;-59
2021/08/31 11:00:20;;;;;;;16.35;8.38;;;;;;;17.86;74.91;102522.63;5033177;28;20049;-58
2021/08/31 11:02:51;;;;;;;17.60;8.40;;;;;;;17.86;74.89;102517.13;5033175;28;20077;-58
2021/08/31 11:05:25;;;;;;;16.17;7.97;;;;;;;17.85;75.50;102530.09;5032733;28;20443;-59
2021/08/31 11:08:01;;;;;;;14.02;7.97;;;;;;;17.83;75.37;102523.19;5032111;28;20464;-59
2021/08/31 11:10:35;;;;;;;16.48;7.53;;;;;;;17.83;73.97;102520.44;5032987;28;20514;-59
2021/08/31 11:13:11;;;;;;;12.55;7.15;;;;;;;17.87;73.32;102522.38;5033130;28;20045;-58
2021/08/31 11:15:40;;;;;;;14.65;7.60;;;;;;;17.91;73.26;102519.88;5032981;28;20042;-59
2021/08/31 11:18:12;;;;;;;16.45;7.60;;;;;;;17.99;73.69;102522.09;5032678;28;20050;-59
2021/08/31 11:20:41;;;;;;;12.10;6.85;;;;;;;18.12;73.63;102515.19;5031584;28;20067;-55
2021/08/31 11:23:22;;;;;;;18.02;7.78;;;;;;;18.17;73.46;102512.41;5032959;28;20132;-60
2021/08/31 11:25:55;;;;;;;17.13;7.90;;;;;;;18.13;73.74;102511.31;5032772;28;20038;-57
2021/08/31 11:28:27;;;;;;;15.30;7.50;;;;;;;18.17;74.23;102506.91;5032428;28;20117;-55
2021/08/31 11:30:55;;;;;;;29.10;9.40;;;;;;;18.24;72.64;102512.94;5032837;28;20048;-58